sensor_id;sensor_type;location;lat;lon;timestamp;temperature;humidity
50606;DHT22;36557;53.572;10.170;2022-12-29T00:02:16;7.80;99.90
50606;DHT22;36557;53.572;10.170;2022-12-29T00:04:42;7.70;99.90
50606;DHT22;36557;53.572;10.170;2022-12-29T00:07:09;7.80;99.90
50606;DHT22;36557;53.572;10.170;2022-12-29T00:09:37;7.80;99.90
50606;DHT22;36557;53.572;10.170;2022-12-29T00:12:04;7.90;99.90
50606;DHT22;36557;53.572;10.170;2022-12-29T00:14:30;7.80;99.90
50606;DHT22;36557;53.572;10.170;2022-12-29T00:17:14;7.90;99.90
50606;DHT22;36557;53.572;10.170;2022-12-29T00:19:40;7.90;99.90
50606;DHT22;36557;53.572;10.170;2022-12-29T00:22:25;8.00;99.90
50606;DHT22;36557;53.572;10.170;2022-12-29T00:25:11;7.90;99.90
50606;DHT22;36557;53.572;10.170;2022-12-29T00:27:55;8.00;99.90
50606;DHT22;36557;53.572;10.170;2022-12-29T00:30:40;7.90;99.90
50606;DHT22;36557;53.572;10.170;2022-12-29T00:33:32;7.90;99.90
50606;DHT22;36557;53.572;10.170;2022-12-29T00:38:51;8.00;99.90
50606;DHT22;36557;53.572;10.170;2022-12-29T00:41:36;8.10;99.90
50606;DHT22;36557;53.572;10.170;2022-12-29T00:44:21;8.00;99.90
50606;DHT22;36557;53.572;10.170;2022-12-29T00:46:46;8.10;99.90
50606;DHT22;36557;53.572;10.170;2022-12-29T00:49:13;8.10;99.90
50606;DHT22;36557;53.572;10.170;2022-12-29T00:54:28;8.10;99.90
50606;DHT22;36557;53.572;10.170;2022-12-29T00:56:54;8.10;99.90
50606;DHT22;36557;53.572;10.170;2022-12-29T00:59:20;8.10;99.90
50606;DHT22;36557;53.572;10.170;2022-12-29T01:01:47;8.20;99.90
50606;DHT22;36557;53.572;10.170;2022-12-29T01:04:13;8.20;99.90
50606;DHT22;36557;53.572;10.170;2022-12-29T01:06:40;8.20;99.90
50606;DHT22;36557;53.572;10.170;2022-12-29T01:09:06;8.20;99.90
50606;DHT22;36557;53.572;10.170;2022-12-29T01:11:51;8.20;99.90
50606;DHT22;36557;53.572;10.170;2022-12-29T01:14:18;8.30;99.90
50606;DHT22;36557;53.572;10.170;2022-12-29T01:16:44;8.20;99.90
50606;DHT22;36557;53.572;10.170;2022-12-29T01:19:11;8.30;99.90
50606;DHT22;36557;53.572;10.170;2022-12-29T01:21:36;8.30;99.90
50606;DHT22;36557;53.572;10.170;2022-12-29T01:24:02;8.30;99.90
50606;DHT22;36557;53.572;10.170;2022-12-29T01:26:28;8.20;99.90
50606;DHT22;36557;53.572;10.170;2022-12-29T01:28:54;8.30;99.90
50606;DHT22;36557;53.572;10.170;2022-12-29T01:31:19;8.30;99.90
50606;DHT22;36557;53.572;10.170;2022-12-29T01:33:45;8.30;99.90
50606;DHT22;36557;53.572;10.170;2022-12-29T01:36:14;8.30;99.90
50606;DHT22;36557;53.572;10.170;2022-12-29T01:38:41;8.40;99.90
50606;DHT22;36557;53.572;10.170;2022-12-29T01:41:08;8.30;99.90
50606;DHT22;36557;53.572;10.170;2022-12-29T01:46:44;8.40;99.90
50606;DHT22;36557;53.572;10.170;2022-12-29T01:49:26;8.40;99.90
50606;DHT22;36557;53.572;10.170;2022-12-29T01:52:03;8.50;99.90
50606;DHT22;36557;53.572;10.170;2022-12-29T01:57:03;8.40;99.90
50606;DHT22;36557;53.572;10.170;2022-12-29T01:59:37;8.50;99.90
50606;DHT22;36557;53.572;10.170;2022-12-29T02:02:05;8.40;99.90
50606;DHT22;36557;53.572;10.170;2022-12-29T02:04:32;8.50;99.90
50606;DHT22;36557;53.572;10.170;2022-12-29T02:07:03;8.30;99.90
50606;DHT22;36557;53.572;10.170;2022-12-29T02:09:30;8.40;99.90
50606;DHT22;36557;53.572;10.170;2022-12-29T02:11:56;8.50;99.90
50606;DHT22;36557;53.572;10.170;2022-12-29T02:14:23;8.50;99.90
50606;DHT22;36557;53.572;10.170;2022-12-29T02:17:13;8.50;99.90
50606;DHT22;36557;53.572;10.170;2022-12-29T02:20:04;8.50;99.90
50606;DHT22;36557;53.572;10.170;2022-12-29T02:28:58;8.40;99.90
50606;DHT22;36557;53.572;10.170;2022-12-29T02:31:52;8.40;99.90
50606;DHT22;36557;53.572;10.170;2022-12-29T02:35:20;8.40;99.90
50606;DHT22;36557;53.572;10.170;2022-12-29T02:38:09;8.40;99.90
50606;DHT22;36557;53.572;10.170;2022-12-29T02:45:34;8.50;99.90
50606;DHT22;36557;53.572;10.170;2022-12-29T02:48:21;8.40;99.90
50606;DHT22;36557;53.572;10.170;2022-12-29T02:53:36;8.40;99.90
50606;DHT22;36557;53.572;10.170;2022-12-29T02:56:21;8.40;99.90
50606;DHT22;36557;53.572;10.170;2022-12-29T02:58:47;8.40;99.90
50606;DHT22;36557;53.572;10.170;2022-12-29T03:04:25;8.40;99.90
50606;DHT22;36557;53.572;10.170;2022-12-29T03:07:24;8.50;99.90
50606;DHT22;36557;53.572;10.170;2022-12-29T03:12:45;8.50;99.90
50606;DHT22;36557;53.572;10.170;2022-12-29T03:16:01;8.40;99.90
50606;DHT22;36557;53.572;10.170;2022-12-29T03:21:41;8.60;99.90
50606;DHT22;36557;53.572;10.170;2022-12-29T03:24:32;8.50;99.90
50606;DHT22;36557;53.572;10.170;2022-12-29T03:27:02;8.50;99.90
50606;DHT22;36557;53.572;10.170;2022-12-29T03:29:32;8.60;99.90
50606;DHT22;36557;53.572;10.170;2022-12-29T03:32:03;8.70;99.90
50606;DHT22;36557;53.572;10.170;2022-12-29T03:34:30;8.60;99.90
50606;DHT22;36557;53.572;10.170;2022-12-29T03:37:02;8.60;99.90
50606;DHT22;36557;53.572;10.170;2022-12-29T03:39:30;8.60;99.90
50606;DHT22;36557;53.572;10.170;2022-12-29T03:42:00;8.60;99.90
50606;DHT22;36557;53.572;10.170;2022-12-29T03:44:38;8.70;99.90
50606;DHT22;36557;53.572;10.170;2022-12-29T03:47:05;8.60;99.90
50606;DHT22;36557;53.572;10.170;2022-12-29T03:49:31;8.70;99.90
50606;DHT22;36557;53.572;10.170;2022-12-29T03:51:58;8.60;99.90
50606;DHT22;36557;53.572;10.170;2022-12-29T03:54:24;8.70;99.90
50606;DHT22;36557;53.572;10.170;2022-12-29T03:56:50;8.60;99.90
50606;DHT22;36557;53.572;10.170;2022-12-29T03:59:15;8.70;99.90
50606;DHT22;36557;53.572;10.170;2022-12-29T04:01:41;8.70;99.90
50606;DHT22;36557;53.572;10.170;2022-12-29T04:04:07;8.70;99.90
50606;DHT22;36557;53.572;10.170;2022-12-29T04:06:33;8.70;99.90
50606;DHT22;36557;53.572;10.170;2022-12-29T04:08:58;8.70;99.90
50606;DHT22;36557;53.572;10.170;2022-12-29T04:11:24;8.60;99.90
50606;DHT22;36557;53.572;10.170;2022-12-29T04:13:50;8.70;99.90
50606;DHT22;36557;53.572;10.170;2022-12-29T04:16:16;8.60;99.90
50606;DHT22;36557;53.572;10.170;2022-12-29T04:18:41;8.60;99.90
50606;DHT22;36557;53.572;10.170;2022-12-29T04:21:07;8.60;99.90
50606;DHT22;36557;53.572;10.170;2022-12-29T04:23:35;8.60;99.90
50606;DHT22;36557;53.572;10.170;2022-12-29T04:26:03;8.70;99.90
50606;DHT22;36557;53.572;10.170;2022-12-29T04:28:29;8.60;99.90
50606;DHT22;36557;53.572;10.170;2022-12-29T04:30:55;8.60;99.90
50606;DHT22;36557;53.572;10.170;2022-12-29T04:33:21;8.70;99.90
50606;DHT22;36557;53.572;10.170;2022-12-29T04:35:47;8.70;99.90
50606;DHT22;36557;53.572;10.170;2022-12-29T04:38:13;8.60;99.90
50606;DHT22;36557;53.572;10.170;2022-12-29T04:40:40;8.60;99.90
50606;DHT22;36557;53.572;10.170;2022-12-29T04:43:07;8.70;99.90
50606;DHT22;36557;53.572;10.170;2022-12-29T04:45:33;8.70;99.90
50606;DHT22;36557;53.572;10.170;2022-12-29T04:47:59;8.60;99.90
50606;DHT22;36557;53.572;10.170;2022-12-29T04:50:25;8.60;99.90
50606;DHT22;36557;53.572;10.170;2022-12-29T04:52:50;8.70;99.90
50606;DHT22;36557;53.572;10.170;2022-12-29T04:55:16;8.70;99.90
50606;DHT22;36557;53.572;10.170;2022-12-29T04:57:42;8.80;99.90
50606;DHT22;36557;53.572;10.170;2022-12-29T05:00:08;8.80;99.90
50606;DHT22;36557;53.572;10.170;2022-12-29T05:02:35;8.90;99.90
50606;DHT22;36557;53.572;10.170;2022-12-29T05:05:01;8.90;99.90
50606;DHT22;36557;53.572;10.170;2022-12-29T05:07:27;8.80;99.90
50606;DHT22;36557;53.572;10.170;2022-12-29T05:09:52;9.00;99.90
50606;DHT22;36557;53.572;10.170;2022-12-29T05:12:18;8.90;99.90
50606;DHT22;36557;53.572;10.170;2022-12-29T05:14:44;9.00;99.90
50606;DHT22;36557;53.572;10.170;2022-12-29T05:17:09;9.00;99.90
50606;DHT22;36557;53.572;10.170;2022-12-29T05:19:35;9.00;99.90
50606;DHT22;36557;53.572;10.170;2022-12-29T05:22:01;8.90;99.90
50606;DHT22;36557;53.572;10.170;2022-12-29T05:24:27;8.90;99.90
50606;DHT22;36557;53.572;10.170;2022-12-29T05:26:52;8.90;99.90
50606;DHT22;36557;53.572;10.170;2022-12-29T05:29:18;8.90;99.90
50606;DHT22;36557;53.572;10.170;2022-12-29T05:31:44;9.00;99.90
50606;DHT22;36557;53.572;10.170;2022-12-29T05:34:11;8.90;99.90
50606;DHT22;36557;53.572;10.170;2022-12-29T05:36:37;8.90;99.90
50606;DHT22;36557;53.572;10.170;2022-12-29T05:39:03;8.90;99.90
50606;DHT22;36557;53.572;10.170;2022-12-29T05:41:28;8.90;99.90
50606;DHT22;36557;53.572;10.170;2022-12-29T05:43:54;8.90;99.90
50606;DHT22;36557;53.572;10.170;2022-12-29T05:46:20;9.00;99.90
50606;DHT22;36557;53.572;10.170;2022-12-29T05:48:46;8.90;99.90
50606;DHT22;36557;53.572;10.170;2022-12-29T05:51:11;9.00;99.90
50606;DHT22;36557;53.572;10.170;2022-12-29T05:53:37;9.10;99.90
50606;DHT22;36557;53.572;10.170;2022-12-29T05:56:03;9.10;99.90
50606;DHT22;36557;53.572;10.170;2022-12-29T05:58:29;9.00;99.90
50606;DHT22;36557;53.572;10.170;2022-12-29T06:00:54;9.00;99.90
50606;DHT22;36557;53.572;10.170;2022-12-29T06:03:20;9.10;99.90
50606;DHT22;36557;53.572;10.170;2022-12-29T06:05:46;9.10;99.90
50606;DHT22;36557;53.572;10.170;2022-12-29T06:08:12;9.10;99.90
50606;DHT22;36557;53.572;10.170;2022-12-29T06:10:38;9.10;99.90
50606;DHT22;36557;53.572;10.170;2022-12-29T06:13:04;9.10;99.90
50606;DHT22;36557;53.572;10.170;2022-12-29T06:15:31;9.20;99.90
50606;DHT22;36557;53.572;10.170;2022-12-29T06:17:57;9.20;99.90
50606;DHT22;36557;53.572;10.170;2022-12-29T06:20:23;9.30;99.90
50606;DHT22;36557;53.572;10.170;2022-12-29T06:22:49;9.40;99.90
50606;DHT22;36557;53.572;10.170;2022-12-29T06:25:15;9.30;99.90
50606;DHT22;36557;53.572;10.170;2022-12-29T06:27:41;9.30;99.90
50606;DHT22;36557;53.572;10.170;2022-12-29T06:30:07;9.30;99.90
50606;DHT22;36557;53.572;10.170;2022-12-29T06:32:34;9.30;99.90
50606;DHT22;36557;53.572;10.170;2022-12-29T06:35:00;9.40;99.90
50606;DHT22;36557;53.572;10.170;2022-12-29T06:37:26;9.50;99.90
50606;DHT22;36557;53.572;10.170;2022-12-29T06:39:51;9.50;99.90
50606;DHT22;36557;53.572;10.170;2022-12-29T06:42:17;9.50;99.90
50606;DHT22;36557;53.572;10.170;2022-12-29T06:44:43;9.40;99.90
50606;DHT22;36557;53.572;10.170;2022-12-29T06:47:09;9.50;99.90
50606;DHT22;36557;53.572;10.170;2022-12-29T06:49:34;9.40;99.90
50606;DHT22;36557;53.572;10.170;2022-12-29T06:52:00;9.40;99.90
50606;DHT22;36557;53.572;10.170;2022-12-29T06:54:29;9.40;99.90
50606;DHT22;36557;53.572;10.170;2022-12-29T06:56:55;9.50;99.90
50606;DHT22;36557;53.572;10.170;2022-12-29T06:59:21;9.30;99.90
50606;DHT22;36557;53.572;10.170;2022-12-29T07:01:47;9.30;99.90
50606;DHT22;36557;53.572;10.170;2022-12-29T07:04:13;9.40;99.90
50606;DHT22;36557;53.572;10.170;2022-12-29T07:06:39;9.30;99.90
50606;DHT22;36557;53.572;10.170;2022-12-29T07:09:07;9.30;99.90
50606;DHT22;36557;53.572;10.170;2022-12-29T07:11:32;9.30;99.90
50606;DHT22;36557;53.572;10.170;2022-12-29T07:13:59;9.30;99.90
50606;DHT22;36557;53.572;10.170;2022-12-29T07:16:24;9.20;99.90
50606;DHT22;36557;53.572;10.170;2022-12-29T07:18:50;9.20;99.90
50606;DHT22;36557;53.572;10.170;2022-12-29T07:21:17;9.20;99.90
50606;DHT22;36557;53.572;10.170;2022-12-29T07:23:43;9.20;99.90
50606;DHT22;36557;53.572;10.170;2022-12-29T07:26:12;9.20;99.90
50606;DHT22;36557;53.572;10.170;2022-12-29T07:28:38;9.10;99.90
50606;DHT22;36557;53.572;10.170;2022-12-29T07:31:05;9.20;99.90
50606;DHT22;36557;53.572;10.170;2022-12-29T07:33:31;9.10;99.90
50606;DHT22;36557;53.572;10.170;2022-12-29T07:35:58;9.10;99.90
50606;DHT22;36557;53.572;10.170;2022-12-29T07:38:24;9.00;99.90
50606;DHT22;36557;53.572;10.170;2022-12-29T07:40:50;9.10;99.90
50606;DHT22;36557;53.572;10.170;2022-12-29T07:43:16;9.10;99.90
50606;DHT22;36557;53.572;10.170;2022-12-29T07:45:42;9.10;99.90
50606;DHT22;36557;53.572;10.170;2022-12-29T07:48:08;9.10;99.90
50606;DHT22;36557;53.572;10.170;2022-12-29T07:50:35;9.20;99.90
50606;DHT22;36557;53.572;10.170;2022-12-29T07:53:01;9.10;99.90
50606;DHT22;36557;53.572;10.170;2022-12-29T07:55:27;9.10;99.90
50606;DHT22;36557;53.572;10.170;2022-12-29T07:57:54;9.30;99.90
50606;DHT22;36557;53.572;10.170;2022-12-29T08:00:20;9.20;99.90
50606;DHT22;36557;53.572;10.170;2022-12-29T08:02:46;9.20;99.90
50606;DHT22;36557;53.572;10.170;2022-12-29T08:05:11;9.20;99.90
50606;DHT22;36557;53.572;10.170;2022-12-29T08:07:37;9.20;99.90
50606;DHT22;36557;53.572;10.170;2022-12-29T08:10:03;9.20;99.90
50606;DHT22;36557;53.572;10.170;2022-12-29T08:12:30;9.30;99.90
50606;DHT22;36557;53.572;10.170;2022-12-29T08:14:55;9.30;99.90
50606;DHT22;36557;53.572;10.170;2022-12-29T08:17:21;9.20;99.90
50606;DHT22;36557;53.572;10.170;2022-12-29T08:19:47;9.30;99.90
50606;DHT22;36557;53.572;10.170;2022-12-29T08:22:16;9.30;99.90
50606;DHT22;36557;53.572;10.170;2022-12-29T08:24:41;9.20;99.90
50606;DHT22;36557;53.572;10.170;2022-12-29T08:27:07;9.20;99.90
50606;DHT22;36557;53.572;10.170;2022-12-29T08:29:33;9.20;99.90
50606;DHT22;36557;53.572;10.170;2022-12-29T08:31:58;9.10;99.90
50606;DHT22;36557;53.572;10.170;2022-12-29T08:34:24;9.20;99.90
50606;DHT22;36557;53.572;10.170;2022-12-29T08:36:50;9.20;99.90
50606;DHT22;36557;53.572;10.170;2022-12-29T08:39:15;9.20;99.90
50606;DHT22;36557;53.572;10.170;2022-12-29T08:41:41;9.30;99.90
50606;DHT22;36557;53.572;10.170;2022-12-29T08:44:07;9.30;99.90
50606;DHT22;36557;53.572;10.170;2022-12-29T08:46:33;9.40;99.90
50606;DHT22;36557;53.572;10.170;2022-12-29T08:48:59;9.50;99.90
50606;DHT22;36557;53.572;10.170;2022-12-29T08:51:27;9.50;99.90
50606;DHT22;36557;53.572;10.170;2022-12-29T08:53:53;9.40;99.90
50606;DHT22;36557;53.572;10.170;2022-12-29T08:56:19;9.50;99.90
50606;DHT22;36557;53.572;10.170;2022-12-29T08:58:45;9.50;99.90
50606;DHT22;36557;53.572;10.170;2022-12-29T09:01:10;9.40;99.90
50606;DHT22;36557;53.572;10.170;2022-12-29T09:03:36;9.40;99.90
50606;DHT22;36557;53.572;10.170;2022-12-29T09:06:02;9.40;99.90
50606;DHT22;36557;53.572;10.170;2022-12-29T09:08:28;9.60;99.90
50606;DHT22;36557;53.572;10.170;2022-12-29T09:10:53;9.60;99.90
50606;DHT22;36557;53.572;10.170;2022-12-29T09:13:19;9.60;99.90
50606;DHT22;36557;53.572;10.170;2022-12-29T09:15:45;9.60;99.90
50606;DHT22;36557;53.572;10.170;2022-12-29T09:18:12;9.50;99.90
50606;DHT22;36557;53.572;10.170;2022-12-29T09:20:37;9.50;99.90
50606;DHT22;36557;53.572;10.170;2022-12-29T09:23:04;9.50;99.90
50606;DHT22;36557;53.572;10.170;2022-12-29T09:25:31;9.50;99.90
50606;DHT22;36557;53.572;10.170;2022-12-29T09:27:57;9.60;99.90
50606;DHT22;36557;53.572;10.170;2022-12-29T09:30:23;9.60;99.90
50606;DHT22;36557;53.572;10.170;2022-12-29T09:32:49;9.60;99.90
50606;DHT22;36557;53.572;10.170;2022-12-29T09:35:16;9.50;99.90
50606;DHT22;36557;53.572;10.170;2022-12-29T09:37:42;9.60;99.90
50606;DHT22;36557;53.572;10.170;2022-12-29T09:40:22;9.60;99.90
50606;DHT22;36557;53.572;10.170;2022-12-29T09:43:26;9.60;99.90
50606;DHT22;36557;53.572;10.170;2022-12-29T09:48:45;9.70;99.90
50606;DHT22;36557;53.572;10.170;2022-12-29T09:51:16;9.70;99.90
50606;DHT22;36557;53.572;10.170;2022-12-29T09:54:00;9.60;99.90
50606;DHT22;36557;53.572;10.170;2022-12-29T09:56:27;9.70;99.90
50606;DHT22;36557;53.572;10.170;2022-12-29T09:59:12;9.80;99.90
50606;DHT22;36557;53.572;10.170;2022-12-29T10:01:51;9.80;99.90
50606;DHT22;36557;53.572;10.170;2022-12-29T10:04:18;9.80;99.90
50606;DHT22;36557;53.572;10.170;2022-12-29T10:09:40;9.90;99.90
50606;DHT22;36557;53.572;10.170;2022-12-29T10:24:56;10.10;99.90
50606;DHT22;36557;53.572;10.170;2022-12-29T10:27:24;10.10;99.90
50606;DHT22;36557;53.572;10.170;2022-12-29T10:29:55;10.10;99.90
50606;DHT22;36557;53.572;10.170;2022-12-29T10:32:29;10.10;99.90
50606;DHT22;36557;53.572;10.170;2022-12-29T10:38:03;10.20;99.90
50606;DHT22;36557;53.572;10.170;2022-12-29T10:40:42;10.10;99.90
50606;DHT22;36557;53.572;10.170;2022-12-29T10:43:28;10.10;99.90
50606;DHT22;36557;53.572;10.170;2022-12-29T10:45:58;10.10;99.90
50606;DHT22;36557;53.572;10.170;2022-12-29T10:48:31;10.10;99.90
50606;DHT22;36557;53.572;10.170;2022-12-29T10:50:59;10.10;99.90
50606;DHT22;36557;53.572;10.170;2022-12-29T10:53:30;10.20;99.90
50606;DHT22;36557;53.572;10.170;2022-12-29T10:55:59;10.00;99.90
50606;DHT22;36557;53.572;10.170;2022-12-29T10:58:27;10.00;99.90
50606;DHT22;36557;53.572;10.170;2022-12-29T11:00:54;10.00;99.90
50606;DHT22;36557;53.572;10.170;2022-12-29T11:06:15;9.90;99.90
50606;DHT22;36557;53.572;10.170;2022-12-29T11:09:01;10.00;99.90
50606;DHT22;36557;53.572;10.170;2022-12-29T11:11:34;10.00;99.90
50606;DHT22;36557;53.572;10.170;2022-12-29T11:14:30;10.10;99.90
50606;DHT22;36557;53.572;10.170;2022-12-29T11:17:02;10.10;99.90
50606;DHT22;36557;53.572;10.170;2022-12-29T11:19:31;10.10;99.90
50606;DHT22;36557;53.572;10.170;2022-12-29T11:22:23;10.10;99.90
50606;DHT22;36557;53.572;10.170;2022-12-29T11:24:52;10.00;99.90
50606;DHT22;36557;53.572;10.170;2022-12-29T11:27:20;10.00;99.90
50606;DHT22;36557;53.572;10.170;2022-12-29T11:29:49;10.10;99.90
50606;DHT22;36557;53.572;10.170;2022-12-29T11:32:28;10.10;99.90
50606;DHT22;36557;53.572;10.170;2022-12-29T11:34:58;10.10;99.90
50606;DHT22;36557;53.572;10.170;2022-12-29T11:45:27;10.10;99.90
50606;DHT22;36557;53.572;10.170;2022-12-29T11:48:04;10.10;99.90
50606;DHT22;36557;53.572;10.170;2022-12-29T11:50:33;10.10;99.90
50606;DHT22;36557;53.572;10.170;2022-12-29T11:53:03;10.10;99.90
50606;DHT22;36557;53.572;10.170;2022-12-29T11:55:29;10.00;99.90
50606;DHT22;36557;53.572;10.170;2022-12-29T11:57:58;10.00;99.90
50606;DHT22;36557;53.572;10.170;2022-12-29T12:00:24;10.00;99.90
50606;DHT22;36557;53.572;10.170;2022-12-29T12:13:55;9.90;99.90
50606;DHT22;36557;53.572;10.170;2022-12-29T12:16:40;9.80;99.90
50606;DHT22;36557;53.572;10.170;2022-12-29T12:19:33;9.80;99.90
50606;DHT22;36557;53.572;10.170;2022-12-29T12:25:09;9.80;99.90
50606;DHT22;36557;53.572;10.170;2022-12-29T12:27:41;9.80;99.90
50606;DHT22;36557;53.572;10.170;2022-12-29T12:30:21;9.80;99.90
50606;DHT22;36557;53.572;10.170;2022-12-29T12:35:37;9.80;99.90
50606;DHT22;36557;53.572;10.170;2022-12-29T12:44:17;9.80;99.90
50606;DHT22;36557;53.572;10.170;2022-12-29T12:55:42;9.80;99.90
50606;DHT22;36557;53.572;10.170;2022-12-29T13:01:18;9.80;99.90
50606;DHT22;36557;53.572;10.170;2022-12-29T13:09:38;9.80;99.90
50606;DHT22;36557;53.572;10.170;2022-12-29T13:15:02;9.70;99.90
50606;DHT22;36557;53.572;10.170;2022-12-29T13:20:31;9.90;99.90
50606;DHT22;36557;53.572;10.170;2022-12-29T13:23:13;10.00;99.90
50606;DHT22;36557;53.572;10.170;2022-12-29T13:34:00;10.00;99.90
50606;DHT22;36557;53.572;10.170;2022-12-29T13:36:48;9.90;99.90
50606;DHT22;36557;53.572;10.170;2022-12-29T13:39:31;10.00;99.90
50606;DHT22;36557;53.572;10.170;2022-12-29T13:41:59;9.90;99.90
50606;DHT22;36557;53.572;10.170;2022-12-29T13:44:48;9.90;99.90
50606;DHT22;36557;53.572;10.170;2022-12-29T13:48:03;9.90;99.90
50606;DHT22;36557;53.572;10.170;2022-12-29T13:50:35;9.80;99.90
50606;DHT22;36557;53.572;10.170;2022-12-29T13:53:15;9.80;99.90
50606;DHT22;36557;53.572;10.170;2022-12-29T14:02:03;9.90;99.90
50606;DHT22;36557;53.572;10.170;2022-12-29T14:04:31;9.90;99.90
50606;DHT22;36557;53.572;10.170;2022-12-29T14:07:16;9.80;99.90
50606;DHT22;36557;53.572;10.170;2022-12-29T14:09:50;9.70;99.90
50606;DHT22;36557;53.572;10.170;2022-12-29T14:12:35;9.70;99.90
50606;DHT22;36557;53.572;10.170;2022-12-29T14:17:39;9.50;99.90
50606;DHT22;36557;53.572;10.170;2022-12-29T14:20:15;9.40;99.90
50606;DHT22;36557;53.572;10.170;2022-12-29T14:22:59;9.30;99.90
50606;DHT22;36557;53.572;10.170;2022-12-29T14:25:54;9.30;99.90
50606;DHT22;36557;53.572;10.170;2022-12-29T14:28:30;8.90;99.90
50606;DHT22;36557;53.572;10.170;2022-12-29T14:31:01;8.50;99.90
50606;DHT22;36557;53.572;10.170;2022-12-29T14:33:33;8.20;99.90
50606;DHT22;36557;53.572;10.170;2022-12-29T14:36:21;8.00;99.90
50606;DHT22;36557;53.572;10.170;2022-12-29T14:38:48;8.00;99.90
50606;DHT22;36557;53.572;10.170;2022-12-29T14:41:26;7.90;99.90
50606;DHT22;36557;53.572;10.170;2022-12-29T14:44:14;7.90;99.90
50606;DHT22;36557;53.572;10.170;2022-12-29T14:46:55;7.80;99.90
50606;DHT22;36557;53.572;10.170;2022-12-29T14:49:25;7.90;99.90
50606;DHT22;36557;53.572;10.170;2022-12-29T14:51:53;7.90;99.90
50606;DHT22;36557;53.572;10.170;2022-12-29T14:54:42;8.00;99.90
50606;DHT22;36557;53.572;10.170;2022-12-29T14:57:39;7.90;99.90
50606;DHT22;36557;53.572;10.170;2022-12-29T15:00:30;7.90;99.90
50606;DHT22;36557;53.572;10.170;2022-12-29T15:08:13;7.80;99.90
50606;DHT22;36557;53.572;10.170;2022-12-29T15:10:47;7.80;99.90
50606;DHT22;36557;53.572;10.170;2022-12-29T15:13:18;7.80;99.90
50606;DHT22;36557;53.572;10.170;2022-12-29T15:15:46;7.80;99.90
50606;DHT22;36557;53.572;10.170;2022-12-29T15:18:15;7.70;99.90
50606;DHT22;36557;53.572;10.170;2022-12-29T15:20:54;7.70;99.90
50606;DHT22;36557;53.572;10.170;2022-12-29T15:23:21;7.70;99.90
50606;DHT22;36557;53.572;10.170;2022-12-29T15:28:26;7.60;99.90
50606;DHT22;36557;53.572;10.170;2022-12-29T15:31:02;7.60;99.90
50606;DHT22;36557;53.572;10.170;2022-12-29T15:33:28;7.60;99.90
50606;DHT22;36557;53.572;10.170;2022-12-29T15:35:56;7.50;99.90
50606;DHT22;36557;53.572;10.170;2022-12-29T15:38:24;7.50;99.90
50606;DHT22;36557;53.572;10.170;2022-12-29T15:40:56;7.50;99.90
50606;DHT22;36557;53.572;10.170;2022-12-29T15:46:11;7.50;99.90
50606;DHT22;36557;53.572;10.170;2022-12-29T15:48:38;7.50;99.90
50606;DHT22;36557;53.572;10.170;2022-12-29T15:51:17;7.50;99.90
50606;DHT22;36557;53.572;10.170;2022-12-29T15:53:47;7.50;99.90
50606;DHT22;36557;53.572;10.170;2022-12-29T15:56:14;7.60;99.90
50606;DHT22;36557;53.572;10.170;2022-12-29T15:58:45;7.50;99.90
50606;DHT22;36557;53.572;10.170;2022-12-29T16:01:28;7.60;99.90
50606;DHT22;36557;53.572;10.170;2022-12-29T16:03:55;7.50;99.90
50606;DHT22;36557;53.572;10.170;2022-12-29T16:06:33;7.50;99.90
50606;DHT22;36557;53.572;10.170;2022-12-29T16:09:17;7.60;99.90
50606;DHT22;36557;53.572;10.170;2022-12-29T16:11:51;7.60;99.90
50606;DHT22;36557;53.572;10.170;2022-12-29T16:14:21;7.60;99.90
50606;DHT22;36557;53.572;10.170;2022-12-29T16:16:49;7.60;99.90
50606;DHT22;36557;53.572;10.170;2022-12-29T16:21:44;7.60;99.90
50606;DHT22;36557;53.572;10.170;2022-12-29T16:24:25;7.50;99.90
50606;DHT22;36557;53.572;10.170;2022-12-29T16:29:23;7.60;99.90
50606;DHT22;36557;53.572;10.170;2022-12-29T16:31:55;7.60;99.90
50606;DHT22;36557;53.572;10.170;2022-12-29T16:34:29;7.50;99.90
50606;DHT22;36557;53.572;10.170;2022-12-29T16:37:19;7.60;99.90
50606;DHT22;36557;53.572;10.170;2022-12-29T16:39:48;7.50;99.90
50606;DHT22;36557;53.572;10.170;2022-12-29T16:50:35;7.50;99.90
50606;DHT22;36557;53.572;10.170;2022-12-29T16:53:02;7.50;99.90
50606;DHT22;36557;53.572;10.170;2022-12-29T16:55:29;7.50;99.90
50606;DHT22;36557;53.572;10.170;2022-12-29T16:57:55;7.40;99.90
50606;DHT22;36557;53.572;10.170;2022-12-29T17:00:27;7.40;99.90
50606;DHT22;36557;53.572;10.170;2022-12-29T17:02:56;7.30;99.90
50606;DHT22;36557;53.572;10.170;2022-12-29T17:05:22;7.40;99.90
50606;DHT22;36557;53.572;10.170;2022-12-29T17:07:48;7.40;99.90
50606;DHT22;36557;53.572;10.170;2022-12-29T17:10:14;7.40;99.90
50606;DHT22;36557;53.572;10.170;2022-12-29T17:12:43;7.40;99.90
50606;DHT22;36557;53.572;10.170;2022-12-29T17:15:24;7.40;99.90
50606;DHT22;36557;53.572;10.170;2022-12-29T17:17:53;7.40;99.90
50606;DHT22;36557;53.572;10.170;2022-12-29T17:20:25;7.50;99.90
50606;DHT22;36557;53.572;10.170;2022-12-29T17:22:52;7.50;99.90
50606;DHT22;36557;53.572;10.170;2022-12-29T17:25:28;7.40;99.90
50606;DHT22;36557;53.572;10.170;2022-12-29T17:28:20;7.30;99.90
50606;DHT22;36557;53.572;10.170;2022-12-29T17:30:47;7.30;99.90
50606;DHT22;36557;53.572;10.170;2022-12-29T17:33:14;7.30;99.90
50606;DHT22;36557;53.572;10.170;2022-12-29T17:35:41;7.20;99.90
50606;DHT22;36557;53.572;10.170;2022-12-29T17:38:27;7.30;99.90
50606;DHT22;36557;53.572;10.170;2022-12-29T17:40:53;7.30;99.90
50606;DHT22;36557;53.572;10.170;2022-12-29T17:43:19;7.30;99.90
50606;DHT22;36557;53.572;10.170;2022-12-29T17:45:54;7.30;99.90
50606;DHT22;36557;53.572;10.170;2022-12-29T17:48:20;7.40;99.90
50606;DHT22;36557;53.572;10.170;2022-12-29T17:50:48;7.40;99.90
50606;DHT22;36557;53.572;10.170;2022-12-29T17:53:28;7.50;99.90
50606;DHT22;36557;53.572;10.170;2022-12-29T17:55:54;7.60;99.90
50606;DHT22;36557;53.572;10.170;2022-12-29T17:58:22;7.60;99.90
50606;DHT22;36557;53.572;10.170;2022-12-29T18:00:50;7.70;99.90
50606;DHT22;36557;53.572;10.170;2022-12-29T18:03:27;7.70;99.90
50606;DHT22;36557;53.572;10.170;2022-12-29T18:05:54;7.70;99.90
50606;DHT22;36557;53.572;10.170;2022-12-29T18:08:20;7.70;99.90
50606;DHT22;36557;53.572;10.170;2022-12-29T18:10:46;7.70;99.90
50606;DHT22;36557;53.572;10.170;2022-12-29T18:13:26;7.80;99.90
50606;DHT22;36557;53.572;10.170;2022-12-29T18:15:54;7.80;99.90
50606;DHT22;36557;53.572;10.170;2022-12-29T18:18:27;7.70;99.90
50606;DHT22;36557;53.572;10.170;2022-12-29T18:20:55;7.80;99.90
50606;DHT22;36557;53.572;10.170;2022-12-29T18:23:28;7.80;99.90
50606;DHT22;36557;53.572;10.170;2022-12-29T18:26:32;7.80;99.90
50606;DHT22;36557;53.572;10.170;2022-12-29T18:28:57;7.80;99.90